createdAt,value
2023-01-02T00:00:55.369Z,99.90
2023-01-02T00:03:22.255Z,99.90
2023-01-02T00:05:49.004Z,99.90
2023-01-02T00:08:17.143Z,99.90
2023-01-02T00:10:44.399Z,99.90
2023-01-02T00:13:11.087Z,99.90
2023-01-02T00:15:37.899Z,99.90
2023-01-02T00:18:04.646Z,99.90
2023-01-02T00:20:31.399Z,99.90
2023-01-02T00:22:58.099Z,99.90
2023-01-02T00:25:24.798Z,99.90
2023-01-02T00:27:51.498Z,99.90
2023-01-02T00:30:18.277Z,99.90
2023-01-02T00:32:44.969Z,99.90
2023-01-02T00:35:11.716Z,99.90
2023-01-02T00:37:38.488Z,99.90
2023-01-02T00:40:05.927Z,99.90
2023-01-02T00:42:32.626Z,99.90
2023-01-02T00:44:59.296Z,99.90
2023-01-02T00:47:25.991Z,99.90
2023-01-02T00:49:52.678Z,99.90
2023-01-02T00:52:19.377Z,99.90
2023-01-02T00:54:46.059Z,99.90
2023-01-02T00:57:12.828Z,99.90
2023-01-02T00:59:39.584Z,99.90
2023-01-02T01:02:06.341Z,99.90
2023-01-02T01:04:36.868Z,99.90
2023-01-02T01:07:04.044Z,99.90
2023-01-02T01:09:30.726Z,99.90
2023-01-02T01:11:57.399Z,99.90
2023-01-02T01:14:24.221Z,99.90
2023-01-02T01:16:50.935Z,99.90
2023-01-02T01:19:17.633Z,99.90
2023-01-02T01:21:44.360Z,99.90
2023-01-02T01:24:11.045Z,99.90
2023-01-02T01:26:37.727Z,99.90
2023-01-02T01:29:04.456Z,99.90
2023-01-02T01:31:31.162Z,99.90
2023-01-02T01:33:57.922Z,99.90
2023-01-02T01:36:25.779Z,99.90
2023-01-02T01:38:52.554Z,99.90
2023-01-02T01:41:21.988Z,99.90
2023-01-02T01:43:54.350Z,99.90
2023-01-02T01:46:43.495Z,99.90
2023-01-02T01:49:26.414Z,99.90
2023-01-02T01:51:57.858Z,99.90
2023-01-02T01:54:34.747Z,99.90
2023-01-02T01:57:08.787Z,99.90
2023-01-02T01:59:35.821Z,99.90
2023-01-02T02:02:02.944Z,99.90
2023-01-02T02:04:29.887Z,99.90
2023-01-02T02:06:56.583Z,99.90
2023-01-02T02:09:35.637Z,99.90
2023-01-02T02:12:04.077Z,99.90
2023-01-02T02:14:30.818Z,99.90
2023-01-02T02:17:12.142Z,99.90
2023-01-02T02:20:00.551Z,99.90
2023-01-02T02:22:42.150Z,99.90
2023-01-02T02:25:39.598Z,99.90
2023-01-02T02:28:37.292Z,99.90
2023-01-02T02:31:38.595Z,99.90
2023-01-02T02:34:25.225Z,99.90
2023-01-02T02:37:02.194Z,99.90
2023-01-02T02:39:59.040Z,99.90
2023-01-02T02:42:52.605Z,99.90
2023-01-02T02:45:22.417Z,99.90
2023-01-02T02:48:00.527Z,99.90
2023-01-02T02:50:40.062Z,99.90
2023-01-02T02:53:17.448Z,99.90
2023-01-02T02:55:55.917Z,99.90
2023-01-02T02:58:24.360Z,99.90
2023-01-02T03:00:51.111Z,99.90
2023-01-02T03:03:23.596Z,99.90
2023-01-02T03:06:19.418Z,99.90
2023-01-02T03:09:04.614Z,99.90
2023-01-02T03:11:55.225Z,99.90
2023-01-02T03:14:31.361Z,99.90
2023-01-02T03:17:24.700Z,99.90
2023-01-02T03:19:56.925Z,99.90
2023-01-02T03:22:29.878Z,99.90
2023-01-02T03:24:58.247Z,99.90
2023-01-02T03:27:29.123Z,99.90
2023-01-02T03:30:06.606Z,99.90
2023-01-02T03:32:38.827Z,99.90
2023-01-02T03:35:12.032Z,99.90
2023-01-02T03:37:45.500Z,99.90
2023-01-02T03:40:19.275Z,99.90
2023-01-02T03:42:53.118Z,99.90
2023-01-02T03:45:31.383Z,99.90
2023-01-02T03:48:28.907Z,99.90
2023-01-02T03:50:59.255Z,99.90
2023-01-02T03:53:27.019Z,99.90
2023-01-02T03:55:59.627Z,99.90
2023-01-02T03:58:56.884Z,99.90
2023-01-02T04:01:39.191Z,99.90
2023-01-02T04:04:18.731Z,99.90
2023-01-02T04:06:55.786Z,99.90
2023-01-02T04:09:26.158Z,99.90
2023-01-02T04:11:58.631Z,99.90
2023-01-02T04:14:31.841Z,99.90
2023-01-02T04:17:01.205Z,99.90
2023-01-02T04:19:35.191Z,99.90
2023-01-02T04:22:07.021Z,99.90
2023-01-02T04:24:38.699Z,99.90
2023-01-02T04:27:29.083Z,99.90
2023-01-02T04:29:56.643Z,99.90
2023-01-02T04:32:26.394Z,99.90
2023-01-02T04:34:54.233Z,99.90
2023-01-02T04:37:35.401Z,99.90
2023-01-02T04:40:28.871Z,99.90
2023-01-02T04:42:56.156Z,99.90
2023-01-02T04:45:23.099Z,99.90
2023-01-02T04:47:50.627Z,99.90
2023-01-02T04:50:17.633Z,99.90
2023-01-02T04:52:44.302Z,99.90
2023-01-02T04:55:11.084Z,99.90
2023-01-02T04:57:38.282Z,99.90
2023-01-02T05:00:07.711Z,99.90
2023-01-02T05:02:36.348Z,99.90
2023-01-02T05:05:03.922Z,99.90
2023-01-02T05:07:30.664Z,99.90
2023-01-02T05:09:57.346Z,99.90
2023-01-02T05:12:24.103Z,99.90
2023-01-02T05:14:50.849Z,99.90
2023-01-02T05:17:17.537Z,99.90
2023-01-02T05:19:44.229Z,99.90
2023-01-02T05:22:32.163Z,99.90
2023-01-02T05:24:58.847Z,99.90
2023-01-02T05:27:25.617Z,99.90
2023-01-02T05:29:52.362Z,99.90
2023-01-02T05:32:19.081Z,99.90
2023-01-02T05:34:45.756Z,99.90
2023-01-02T05:37:12.449Z,99.90
2023-01-02T05:39:39.117Z,99.90
2023-01-02T05:42:05.804Z,99.90
2023-01-02T05:44:32.508Z,99.90
2023-01-02T05:46:59.232Z,99.90
2023-01-02T05:49:25.969Z,99.90
2023-01-02T05:51:52.659Z,99.90
2023-01-02T05:54:19.349Z,99.90
2023-01-02T05:56:46.048Z,99.90
2023-01-02T05:59:16.091Z,99.90
2023-01-02T06:01:42.934Z,99.90
2023-01-02T06:04:10.447Z,99.90
2023-01-02T06:06:40.411Z,99.90
2023-01-02T06:09:08.677Z,99.90
2023-01-02T06:11:36.554Z,99.90
2023-01-02T06:14:03.268Z,99.90
2023-01-02T06:16:30.308Z,99.90
2023-01-02T06:18:57.124Z,99.90
2023-01-02T06:21:24.275Z,99.90
2023-01-02T06:23:56.880Z,99.90
2023-01-02T06:26:28.717Z,99.90
2023-01-02T06:28:58.169Z,99.90
2023-01-02T07:01:29.836Z,99.90
2023-01-02T07:03:57.987Z,99.90
2023-01-02T07:06:41.246Z,99.90
2023-01-02T07:09:08.894Z,99.90
2023-01-02T07:14:16.489Z,99.90
2023-01-02T15:19:45.030Z,92.60
2023-01-02T15:22:49.181Z,92.70
2023-01-02T15:29:27.769Z,93.90
2023-01-02T15:31:59.935Z,94.50
2023-01-02T15:34:34.079Z,94.40
2023-01-02T15:37:07.118Z,94.80
2023-01-02T15:56:56.736Z,93.70
2023-01-02T15:59:42.159Z,93.40
2023-01-02T16:02:32.010Z,94.00
2023-01-02T16:09:29.465Z,94.70
2023-01-02T16:12:01.951Z,95.00
2023-01-02T16:14:50.597Z,95.20
2023-01-02T16:17:22.909Z,95.80
2023-01-02T16:24:11.510Z,96.20
2023-01-02T16:26:45.270Z,96.40
2023-01-02T16:29:19.271Z,96.20
2023-01-02T16:32:00.641Z,95.90
2023-01-02T16:39:08.835Z,95.30
2023-01-02T16:42:15.811Z,94.90
2023-01-02T16:44:44.230Z,94.70
2023-01-02T16:51:27.951Z,94.00
2023-01-02T16:53:54.954Z,93.90
2023-01-02T16:56:28.391Z,94.50
2023-01-02T16:59:03.224Z,94.20
2023-01-02T17:06:08.374Z,94.30
2023-01-02T17:08:47.516Z,94.30
2023-01-02T17:11:25.098Z,94.80
2023-01-02T17:18:22.650Z,94.00
2023-01-02T17:20:50.760Z,94.00
2023-01-02T17:23:19.760Z,94.50
2023-01-02T17:25:49.967Z,94.70
2023-01-02T21:21:43.183Z,99.90
2023-01-02T21:24:09.987Z,99.90
2023-01-02T21:30:10.965Z,99.90
2023-01-02T21:32:38.017Z,99.90
2023-01-02T21:35:05.375Z,99.90
2023-01-02T21:37:32.388Z,99.90
2023-01-02T21:44:13.271Z,99.90
2023-01-02T21:46:40.316Z,99.90
2023-01-02T21:49:07.566Z,99.90
2023-01-02T21:51:36.124Z,99.90
2023-01-02T21:58:19.124Z,99.90
2023-01-02T22:00:46.347Z,99.90
2023-01-02T22:03:13.778Z,99.90
2023-01-02T22:05:41.140Z,99.90
2023-01-02T22:09:09.326Z,99.90
2023-01-02T22:11:58.002Z,99.90
2023-01-02T22:14:32.967Z,99.90
2023-01-02T22:17:06.255Z,99.90
2023-01-02T22:23:49.364Z,99.90
2023-01-02T22:26:18.112Z,99.90
2023-01-02T22:28:48.957Z,99.90
2023-01-02T22:31:16.652Z,99.90
2023-01-02T22:38:02.330Z,99.90
2023-01-02T22:40:30.131Z,99.90
2023-01-02T22:43:00.876Z,99.90
2023-01-02T22:45:32.122Z,99.90
2023-01-02T22:52:13.079Z,99.90
2023-01-02T22:54:47.455Z,99.90
2023-01-02T22:57:15.641Z,99.90
2023-01-02T22:59:51.216Z,99.90
2023-01-02T23:03:38.232Z,99.90
2023-01-02T23:07:23.220Z,99.90
2023-01-02T23:09:45.771Z,99.90
2023-01-02T23:12:12.586Z,99.90
2023-01-02T23:19:07.102Z,99.90
2023-01-02T23:21:36.046Z,99.90
2023-01-02T23:24:03.637Z,99.90
2023-01-02T23:26:35.853Z,99.90
2023-01-02T23:33:05.192Z,99.90
2023-01-02T23:35:31.964Z,99.90
2023-01-02T23:37:58.771Z,99.90
2023-01-02T23:40:29.320Z,99.90
2023-01-02T23:47:19.047Z,99.90
2023-01-02T23:49:46.405Z,99.90
2023-01-02T23:52:13.487Z,99.90
2023-01-02T23:54:40.377Z,99.90
2023-01-02T23:58:07.075Z,99.90
